Sim-Planet VA

Sim-Planet Nouvel Horizon. By: Anthony Pay
Since 2020.




 METAR ET TAF INFORMATION
METAR FOR LGRP
ADDS - METARS form results

(0114 UTC 24 October 2021)
Data provider http://aviationweather.gov/metar/data/
 
METAR text: LGRP 240050Z 24004KT CAVOK 19/16 Q1018 NOSIG
Conditions at: LGRP (RHODES/DIAGORAS , GR) observed 0050 UTC 24 October 2021
Temperature: 19.0°C (66°F)
Dewpoint: 16.0°C (61°F) [RH = 83%]
Pressure (altimeter): 30.06 inches Hg (1018.0 mb)
Winds: from the WSW (240 degrees) at 5 MPH (4 knots; 2.1 m/s)
Visibility: 6 or more miles (10+ km)
Ceiling: ceiling and visibility are OK
Clouds: unknown
Weather: no significant weather observed at this time

METAR text: LGRP 240020Z 25005KT CAVOK 19/16 Q1019 NOSIG
Conditions at: LGRP (RHODES/DIAGORAS , GR) observed 0020 UTC 24 October 2021
Temperature: 19.0°C (66°F)
Dewpoint: 16.0°C (61°F) [RH = 83%]
Pressure (altimeter): 30.09 inches Hg (1019.0 mb)
Winds: from the WSW (250 degrees) at 6 MPH (5 knots; 2.6 m/s)
Visibility: 6 or more miles (10+ km)
Ceiling: ceiling and visibility are OK
Clouds: unknown
Weather: no significant weather observed at this time

Forecast for: LGRP (RHODES/DIAGORAS , GR)
Text: TAF LGRP 232300Z 2400/2424 26012KT 9999 FEW020
Forecast period: 0000 UTC 24 October 2021 to 0000 UTC 25 October 2021
Forecast type: FROM: standard forecast or significant change
Winds: from the W (260 degrees) at 14 MPH (12 knots; 6.2 m/s)
Visibility: 6 or more miles (10+ km)
Ceiling: at least 12,000 feet AGL
Clouds: few clouds at 2000 feet AGL
Weather: no significant weather forecast for this period
Text: TEMPO 2412/2418 29015G25KT
Forecast period: 1200 to 1800 UTC 24 October 2021
Forecast type: TEMPORARY: The following changes expected for less than half the time period
Winds: from the WNW (290 degrees) at 17 MPH (15 knots; 7.7 m/s)
gusting to 29 MPH (25 knots; 12.9 m/s)
Visibility: missing
Ceiling: unknown
Clouds: missing
Weather: no significant weather forecast for this period

 AÉROPORT DE AÉROPORT

 INFORMATIONS DE PISTE
Piste 07 Longueur de la piste 10846 ft Largeur de la piste 148 ft
Élévation de la piste 16 ft Seuil de la piste déplacés 0 ft Runway heading 70
Piste 25 Longueur de la piste 10846 ft Largeur de la piste 148 ft
Élévation de la piste 17 ft Seuil de la piste déplacés 0 ft Runway heading 250

 AÉROPORT FRÉQUENCES
Type A/G Nom RDO Féquence 563.7 MHZ
Type APP Nom RODOS APP Féquence 118.25 MHZ
Type ATIS Nom ATIS Féquence 126.35 MHZ
Type GND Nom GND Féquence 121.7 MHZ
Type TWR Nom TWR Féquence 118.2 MHZ

 SIDA DE NAVIGATION
Type VOR-DME Nom Paradisi Féquence 108600 KHZ
Type VOR-DME Nom Rodos Féquence 115800 KHZ
Type TACAN Nom Rodos Féquence 117400 KHZ
Type NDB Nom Rodos Féquence 339 KHZ

Nos Partenaires